createdAt,value
2023-05-23T00:00:25.651Z,73.30
2023-05-23T00:02:55.024Z,73.20
2023-05-23T00:05:24.263Z,73.10
2023-05-23T00:07:53.428Z,73.10
2023-05-23T00:10:22.553Z,73.20
2023-05-23T00:12:53.398Z,73.10
2023-05-23T00:15:22.654Z,73.10
2023-05-23T00:17:51.933Z,73.10
2023-05-23T00:20:21.284Z,73.00
2023-05-23T00:22:50.387Z,73.00
2023-05-23T00:25:22.162Z,73.00
2023-05-23T00:27:52.720Z,72.90
2023-05-23T00:30:21.763Z,72.80
2023-05-23T00:32:52.878Z,72.80
2023-05-23T00:35:22.019Z,72.70
2023-05-23T00:37:54.342Z,72.60
2023-05-23T00:40:24.121Z,72.60
2023-05-23T00:42:54.750Z,72.50
2023-05-23T00:45:24.713Z,72.50
2023-05-23T00:47:54.593Z,72.40
2023-05-23T00:50:23.937Z,72.40
2023-05-23T00:52:53.137Z,72.40
2023-05-23T00:55:22.458Z,72.50
2023-05-23T00:57:51.987Z,72.50
2023-05-23T01:00:22.981Z,72.50
2023-05-23T01:02:53.583Z,72.40
2023-05-23T01:05:25.220Z,72.40
2023-05-23T01:07:55.800Z,72.50
2023-05-23T01:10:27.284Z,72.40
2023-05-23T01:13:08.119Z,72.40
2023-05-23T01:15:43.551Z,72.40
2023-05-23T01:18:18.445Z,72.50
2023-05-23T01:20:52.111Z,72.40
2023-05-23T01:23:49.517Z,72.40
2023-05-23T01:26:35.088Z,72.50
2023-05-23T01:29:12.439Z,72.50
2023-05-23T01:31:47.247Z,72.50
2023-05-23T01:34:18.909Z,72.50
2023-05-23T01:36:51.577Z,72.50
2023-05-23T01:39:20.675Z,72.60
2023-05-23T01:41:51.242Z,72.70
2023-05-23T01:44:22.218Z,72.80
2023-05-23T01:46:51.272Z,72.80
2023-05-23T01:49:21.771Z,72.80
2023-05-23T01:51:51.314Z,72.90
2023-05-23T01:54:20.942Z,73.20
2023-05-23T01:56:52.224Z,73.20
2023-05-23T01:59:22.795Z,73.20
2023-05-23T02:01:52.195Z,73.20
2023-05-23T02:04:22.769Z,73.30
2023-05-23T02:06:51.853Z,73.30
2023-05-23T02:09:21.328Z,73.40
2023-05-23T02:11:50.495Z,73.40
2023-05-23T02:14:19.794Z,73.50
2023-05-23T02:16:52.769Z,73.60
2023-05-23T02:19:22.592Z,73.70
2023-05-23T02:21:51.747Z,73.90
2023-05-23T02:24:20.975Z,74.00
2023-05-23T02:26:50.038Z,74.10
2023-05-23T02:29:19.167Z,74.10
2023-05-23T02:31:49.742Z,74.10
2023-05-23T02:34:18.965Z,74.20
2023-05-23T02:36:48.046Z,74.20
2023-05-23T02:39:17.267Z,74.30
2023-05-23T02:41:48.225Z,74.30
2023-05-23T02:44:19.742Z,74.40
2023-05-23T02:46:50.357Z,74.50
2023-05-23T02:49:20.764Z,74.60
2023-05-23T02:51:49.933Z,74.70
2023-05-23T02:54:19.212Z,74.70
2023-05-23T02:56:48.326Z,74.80
2023-05-23T02:59:18.012Z,74.90
2023-05-23T03:01:47.096Z,74.90
2023-05-23T03:04:18.398Z,75.00
2023-05-23T03:06:47.782Z,75.10
2023-05-23T03:09:18.025Z,75.20
2023-05-23T03:11:47.168Z,75.20
2023-05-23T03:14:16.302Z,75.20
2023-05-23T03:16:45.547Z,75.20
2023-05-23T03:19:15.145Z,75.30
2023-05-23T03:21:45.681Z,75.30
2023-05-23T03:24:14.829Z,75.20
2023-05-23T03:26:43.885Z,75.20
2023-05-23T03:29:14.354Z,75.20
2023-05-23T03:31:45.625Z,75.30
2023-05-23T03:34:14.816Z,75.30
2023-05-23T03:36:45.323Z,75.30
2023-05-23T03:39:14.374Z,75.30
2023-05-23T03:41:43.466Z,75.10
2023-05-23T03:44:12.701Z,75.10
2023-05-23T03:46:41.972Z,74.90
2023-05-23T03:49:11.168Z,74.80
2023-05-23T03:51:40.288Z,74.70
2023-05-23T03:54:10.814Z,74.70
2023-05-23T03:56:40.135Z,74.50
2023-05-23T03:59:09.411Z,74.50
2023-05-23T04:01:39.688Z,74.50
2023-05-23T04:04:08.890Z,74.50
2023-05-23T04:06:39.852Z,74.50
2023-05-23T04:09:10.341Z,74.50
2023-05-23T04:11:42.749Z,74.50
2023-05-23T04:14:12.577Z,74.60
2023-05-23T04:16:42.686Z,74.70
2023-05-23T04:19:12.457Z,74.70
2023-05-23T04:21:41.769Z,74.70
2023-05-23T04:24:14.365Z,74.70
2023-05-23T04:26:44.068Z,74.60
2023-05-23T04:29:13.394Z,74.50
2023-05-23T04:31:45.960Z,74.50
2023-05-23T04:34:17.506Z,74.50
2023-05-23T04:36:46.958Z,74.50
2023-05-23T04:39:19.910Z,74.50
2023-05-23T04:42:09.069Z,74.40
2023-05-23T04:44:52.860Z,74.50
2023-05-23T04:47:37.572Z,74.50
2023-05-23T04:50:12.358Z,74.40
2023-05-23T04:52:41.579Z,75.40
2023-05-23T04:55:13.280Z,74.60
2023-05-23T04:57:42.491Z,74.60
2023-05-23T05:00:12.945Z,74.60
2023-05-23T05:02:43.692Z,74.70
2023-05-23T05:05:12.872Z,74.80
2023-05-23T05:07:42.000Z,74.70
2023-05-23T05:10:17.957Z,74.60
2023-05-23T05:12:49.587Z,74.70
2023-05-23T05:15:20.585Z,74.70
2023-05-23T05:17:54.408Z,74.70
2023-05-23T05:20:24.556Z,74.70
2023-05-23T05:22:58.517Z,74.70
2023-05-23T05:25:32.225Z,74.90
2023-05-23T05:28:06.052Z,75.00
2023-05-23T05:30:39.538Z,75.00
2023-05-23T05:33:09.065Z,74.90
2023-05-23T05:35:38.562Z,75.00
2023-05-23T05:38:08.572Z,75.00
2023-05-23T05:40:39.465Z,75.10
2023-05-23T05:43:08.873Z,75.10
2023-05-23T05:45:38.115Z,75.20
2023-05-23T05:48:08.013Z,75.20
2023-05-23T05:50:38.036Z,75.20
2023-05-23T05:53:08.319Z,75.10
2023-05-23T05:55:39.104Z,75.10
2023-05-23T05:58:08.470Z,75.20
2023-05-23T06:00:56.576Z,75.30
2023-05-23T06:03:26.223Z,75.30
2023-05-23T06:05:57.504Z,75.30
2023-05-23T06:08:26.784Z,75.20
2023-05-23T06:10:57.761Z,75.20
2023-05-23T06:13:28.432Z,75.30
2023-05-23T06:15:58.552Z,75.30
2023-05-23T06:18:28.125Z,75.20
2023-05-23T06:20:57.992Z,75.20
2023-05-23T06:23:28.591Z,75.30
2023-05-23T06:26:00.253Z,75.40
2023-05-23T06:28:29.411Z,75.30
2023-05-23T06:30:58.571Z,75.20
2023-05-23T06:33:27.677Z,75.30
2023-05-23T06:35:57.041Z,75.40
2023-05-23T06:38:29.745Z,75.40
2023-05-23T06:41:00.322Z,75.40
2023-05-23T06:43:30.567Z,75.40
2023-05-23T06:46:14.925Z,75.40
2023-05-23T06:48:44.323Z,75.30
2023-05-23T06:51:13.663Z,75.10
2023-05-23T06:53:43.960Z,75.20
2023-05-23T06:56:14.517Z,75.20
2023-05-23T06:58:55.314Z,75.00
2023-05-23T07:01:31.470Z,75.00
2023-05-23T07:04:00.673Z,74.90
2023-05-23T07:06:29.934Z,74.80
2023-05-23T07:08:59.926Z,74.80
2023-05-23T07:11:31.287Z,74.80
2023-05-23T07:14:01.942Z,75.60
2023-05-23T07:16:43.247Z,74.70
2023-05-23T07:19:13.565Z,74.60
2023-05-23T07:22:12.620Z,74.40
2023-05-23T07:24:47.291Z,74.50
2023-05-23T07:27:18.945Z,74.40
2023-05-23T07:29:48.256Z,74.50
2023-05-23T07:32:17.907Z,74.50
2023-05-23T07:34:48.923Z,74.50
2023-05-23T07:37:18.124Z,74.40
2023-05-23T07:39:47.967Z,74.40
2023-05-23T07:42:18.772Z,74.30
2023-05-23T07:44:47.937Z,74.20
2023-05-23T07:47:17.273Z,74.10
2023-05-23T07:49:47.617Z,73.90
2023-05-23T07:52:16.812Z,73.60
2023-05-23T07:54:46.221Z,73.30
2023-05-23T07:57:16.842Z,73.50
2023-05-23T07:59:47.986Z,73.30
2023-05-23T08:02:17.328Z,73.30
2023-05-23T08:04:47.937Z,73.40
2023-05-23T08:07:19.411Z,73.30
2023-05-23T08:09:53.406Z,73.30
2023-05-23T08:12:23.298Z,73.20
2023-05-23T08:15:05.305Z,73.10
2023-05-23T08:17:41.179Z,72.60
2023-05-23T08:20:12.312Z,72.20
2023-05-23T08:22:41.757Z,71.30
2023-05-23T08:25:11.994Z,70.50
2023-05-23T08:27:42.672Z,70.20
2023-05-23T08:30:35.552Z,70.10
2023-05-23T08:33:07.258Z,69.20
2023-05-23T08:35:38.035Z,68.30
2023-05-23T08:38:11.125Z,68.70
2023-05-23T08:40:51.301Z,69.10
2023-05-23T08:43:21.515Z,69.20
2023-05-23T08:45:53.396Z,68.70
2023-05-23T08:48:22.829Z,68.20
2023-05-23T08:50:54.479Z,68.20
2023-05-23T08:53:30.455Z,67.80
2023-05-23T08:56:06.994Z,67.70
2023-05-23T08:58:44.537Z,67.60
2023-05-23T09:01:18.539Z,67.70
2023-05-23T09:03:50.348Z,67.50
2023-05-23T09:06:37.675Z,67.30
2023-05-23T09:09:07.707Z,66.70
2023-05-23T09:11:37.211Z,66.30
2023-05-23T09:14:10.032Z,66.00
2023-05-23T09:16:42.688Z,65.50
2023-05-23T09:19:16.230Z,64.50
2023-05-23T09:21:54.825Z,63.70
2023-05-23T09:24:36.233Z,63.40
2023-05-23T09:27:08.419Z,63.50
2023-05-23T09:29:39.944Z,63.00
2023-05-23T09:32:17.928Z,62.10
2023-05-23T09:34:58.172Z,61.60
2023-05-23T09:37:32.880Z,61.30
2023-05-23T09:40:03.397Z,61.20
2023-05-23T09:42:35.729Z,60.70
2023-05-23T09:45:05.399Z,61.00
2023-05-23T09:47:35.954Z,61.50
2023-05-23T09:50:06.100Z,60.80
2023-05-23T09:52:38.462Z,60.20
2023-05-23T09:55:08.545Z,59.90
2023-05-23T09:57:41.591Z,59.80
2023-05-23T10:00:12.535Z,59.00
2023-05-23T10:03:11.126Z,58.50
2023-05-23T10:05:45.395Z,58.40
2023-05-23T10:08:19.954Z,58.60
2023-05-23T10:11:34.904Z,58.10
2023-05-23T10:14:07.943Z,56.80
2023-05-23T10:16:45.435Z,56.70
2023-05-23T10:19:24.293Z,56.70
2023-05-23T10:21:59.629Z,56.20
2023-05-23T10:24:29.036Z,56.00
2023-05-23T10:26:59.429Z,56.20
2023-05-23T10:29:30.500Z,56.10
2023-05-23T10:32:02.774Z,55.70
2023-05-23T10:34:38.922Z,55.50
2023-05-23T10:37:09.155Z,55.50
2023-05-23T10:39:58.667Z,55.80
2023-05-23T10:42:42.930Z,55.70
2023-05-23T10:45:19.663Z,55.80
2023-05-23T10:47:50.017Z,55.60
2023-05-23T10:50:34.147Z,55.90
2023-05-23T10:53:04.141Z,56.60
2023-05-23T10:55:34.629Z,56.60
2023-05-23T10:58:16.944Z,56.50
2023-05-23T11:00:56.236Z,54.30
2023-05-23T11:03:39.238Z,54.30
2023-05-23T11:06:32.433Z,54.70
2023-05-23T11:09:07.782Z,55.00
2023-05-23T11:11:59.176Z,54.40
2023-05-23T11:14:37.933Z,53.50
2023-05-23T11:17:17.919Z,54.10
2023-05-23T11:20:05.896Z,54.50
2023-05-23T11:22:37.317Z,54.20
2023-05-23T11:25:09.934Z,54.00
2023-05-23T11:27:40.934Z,53.60
2023-05-23T11:30:13.698Z,53.60
2023-05-23T11:32:44.379Z,53.90
2023-05-23T11:35:13.706Z,53.90
2023-05-23T11:37:45.699Z,54.20
2023-05-23T11:40:32.360Z,54.30
2023-05-23T11:43:02.342Z,54.30
2023-05-23T11:45:32.922Z,54.30
2023-05-23T11:48:07.706Z,53.90
2023-05-23T11:50:44.587Z,53.70
2023-05-23T11:53:17.288Z,54.00
2023-05-23T11:55:54.462Z,53.80
2023-05-23T11:58:24.023Z,53.60
2023-05-23T12:00:55.188Z,53.50
2023-05-23T12:03:24.525Z,53.10
2023-05-23T12:05:53.701Z,53.70
2023-05-23T12:08:25.292Z,53.80
2023-05-23T12:10:55.622Z,53.40
2023-05-23T12:13:26.459Z,54.10
2023-05-23T12:15:56.996Z,55.10
2023-05-23T12:18:29.760Z,55.60
2023-05-23T12:21:01.522Z,55.70
2023-05-23T12:23:34.519Z,55.80
2023-05-23T12:26:08.177Z,56.20
2023-05-23T12:28:38.528Z,57.30
2023-05-23T12:31:12.594Z,57.10
2023-05-23T12:33:43.998Z,57.60
2023-05-23T12:36:13.081Z,57.80
2023-05-23T12:38:45.496Z,58.00
2023-05-23T12:41:19.742Z,58.30
2023-05-23T12:43:53.230Z,58.70
2023-05-23T12:46:23.165Z,59.10
2023-05-23T12:48:52.924Z,59.30
2023-05-23T12:51:22.621Z,59.50
2023-05-23T12:53:53.367Z,59.70
2023-05-23T12:56:23.396Z,60.20
2023-05-23T12:58:53.900Z,60.50
2023-05-23T13:01:23.205Z,60.80
2023-05-23T13:03:52.482Z,61.20
2023-05-23T13:06:21.782Z,61.60
2023-05-23T13:08:54.587Z,62.00
2023-05-23T13:11:23.881Z,62.20
2023-05-23T13:13:53.216Z,62.60
2023-05-23T13:16:22.394Z,62.80
2023-05-23T13:18:51.495Z,63.10
2023-05-23T13:21:20.657Z,63.20
2023-05-23T13:23:49.877Z,63.00
2023-05-23T13:26:20.532Z,62.90
2023-05-23T13:28:49.589Z,62.70
2023-05-23T13:31:19.168Z,62.30
2023-05-23T13:33:48.325Z,62.10
2023-05-23T13:36:17.566Z,61.90
2023-05-23T13:38:46.803Z,62.30
2023-05-23T13:41:15.890Z,62.20
2023-05-23T13:43:46.435Z,62.20
2023-05-23T13:46:15.527Z,62.00
2023-05-23T13:48:44.638Z,62.10
2023-05-23T13:51:13.959Z,62.30
2023-05-23T13:53:43.085Z,62.50
2023-05-23T13:56:12.350Z,63.10
2023-05-23T13:58:43.001Z,63.20
2023-05-23T14:01:13.588Z,63.40
2023-05-23T14:03:42.660Z,64.40
2023-05-23T14:06:11.853Z,63.70
2023-05-23T14:08:40.947Z,63.80
2023-05-23T14:11:09.998Z,63.80
2023-05-23T14:13:39.116Z,63.80
2023-05-23T14:16:08.629Z,63.70
2023-05-23T14:18:39.356Z,63.50
2023-05-23T14:21:08.419Z,63.80
2023-05-23T14:23:37.566Z,63.70
2023-05-23T14:26:07.317Z,63.40
2023-05-23T14:28:36.706Z,63.70
2023-05-23T14:31:06.141Z,64.00
2023-05-23T14:33:35.241Z,64.20
2023-05-23T14:36:06.416Z,64.60
2023-05-23T14:38:35.493Z,64.90
2023-05-23T14:41:04.567Z,64.90
2023-05-23T14:43:33.663Z,65.20
2023-05-23T14:46:02.827Z,65.10
2023-05-23T14:48:32.495Z,65.10
2023-05-23T14:51:01.998Z,65.00
2023-05-23T14:53:32.657Z,65.00
2023-05-23T14:56:01.907Z,64.80
2023-05-23T14:58:31.015Z,65.60
2023-05-23T15:01:00.138Z,64.40
2023-05-23T15:03:29.292Z,64.00
2023-05-23T15:05:58.426Z,63.80
2023-05-23T15:08:27.821Z,63.60
2023-05-23T15:10:58.430Z,63.30
2023-05-23T15:13:28.574Z,63.20
2023-05-23T15:15:57.650Z,63.30
2023-05-23T15:18:39.810Z,63.00
2023-05-23T15:21:10.833Z,63.00
2023-05-23T15:23:39.925Z,63.20
2023-05-23T15:26:10.475Z,63.30
2023-05-23T15:28:39.524Z,63.10
2023-05-23T15:31:08.651Z,63.00
2023-05-23T15:33:37.714Z,62.50
2023-05-23T15:36:07.349Z,62.00
2023-05-23T15:38:36.569Z,61.90
2023-05-23T15:41:06.456Z,61.90
2023-05-23T15:43:37.158Z,62.20
2023-05-23T15:46:06.526Z,62.50
2023-05-23T15:48:35.608Z,62.40
2023-05-23T15:51:04.762Z,62.50
2023-05-23T15:53:40.181Z,62.50
2023-05-23T15:56:17.543Z,62.30
2023-05-23T15:58:49.208Z,62.30
2023-05-23T16:01:18.313Z,62.10
2023-05-23T16:03:47.464Z,62.00
2023-05-23T16:06:16.573Z,62.20
2023-05-23T16:08:45.734Z,62.50
2023-05-23T16:11:14.840Z,62.90
2023-05-23T16:13:43.924Z,63.30
2023-05-23T16:16:14.606Z,63.40
2023-05-23T16:18:43.725Z,63.40
2023-05-23T16:21:12.828Z,63.50
2023-05-23T16:23:42.085Z,63.30
2023-05-23T16:26:11.214Z,62.90
2023-05-23T16:28:43.755Z,62.80
2023-05-23T16:31:17.034Z,62.50
2023-05-23T16:33:47.339Z,62.60
2023-05-23T16:36:16.450Z,62.80
2023-05-23T16:38:45.662Z,62.80
2023-05-23T16:41:14.928Z,62.90
2023-05-23T16:43:44.250Z,63.20
2023-05-23T16:46:14.864Z,63.20
2023-05-23T16:48:44.078Z,63.20
2023-05-23T16:51:13.239Z,63.10
2023-05-23T16:53:42.398Z,63.00
2023-05-23T16:56:11.605Z,63.00
2023-05-23T16:58:41.933Z,63.40
2023-05-23T17:01:11.201Z,63.60
2023-05-23T17:03:42.753Z,64.00
2023-05-23T17:06:11.997Z,64.10
2023-05-23T17:08:41.139Z,63.90
2023-05-23T17:11:10.368Z,63.90
2023-05-23T17:13:39.448Z,64.00
2023-05-23T17:16:08.703Z,64.10
2023-05-23T17:18:38.198Z,64.50
2023-05-23T17:21:08.817Z,64.80
2023-05-23T17:23:38.228Z,65.00
2023-05-23T17:26:07.626Z,65.10
2023-05-23T17:28:36.742Z,64.60
2023-05-23T17:31:06.720Z,64.80
2023-05-23T17:33:36.114Z,64.60
2023-05-23T17:36:05.516Z,65.40
2023-05-23T17:38:36.037Z,64.30
2023-05-23T17:41:05.325Z,64.00
2023-05-23T17:43:34.664Z,63.60
2023-05-23T17:46:03.974Z,63.70
2023-05-23T17:48:46.502Z,63.80
2023-05-23T17:51:16.998Z,63.70
2023-05-23T17:53:47.507Z,63.50
2023-05-23T17:56:16.666Z,63.40
2023-05-23T17:58:46.074Z,63.40
2023-05-23T18:01:15.289Z,63.60
2023-05-23T18:03:44.623Z,63.80
2023-05-23T18:06:13.857Z,64.10
2023-05-23T18:08:42.944Z,64.20
2023-05-23T18:11:14.212Z,64.60
2023-05-23T18:13:44.324Z,64.80
2023-05-23T18:16:14.634Z,64.90
2023-05-23T18:18:43.764Z,65.20
2023-05-23T18:21:12.867Z,65.30
2023-05-23T18:23:42.131Z,65.60
2023-05-23T18:26:12.657Z,65.60
2023-05-23T18:28:42.008Z,65.70
2023-05-23T18:31:11.237Z,65.50
2023-05-23T18:33:40.457Z,65.50
2023-05-23T18:36:09.967Z,65.50
2023-05-23T18:38:40.989Z,65.40
2023-05-23T18:41:13.930Z,65.60
2023-05-23T18:43:45.391Z,65.60
2023-05-23T18:46:14.534Z,65.60
2023-05-23T18:48:44.815Z,65.80
2023-05-23T18:51:14.072Z,66.00
2023-05-23T18:53:43.265Z,66.20
2023-05-23T18:56:12.782Z,66.40
2023-05-23T18:58:42.067Z,66.50
2023-05-23T19:01:12.800Z,66.80
2023-05-23T19:03:42.007Z,67.00
2023-05-23T19:06:11.266Z,67.20
2023-05-23T19:08:40.425Z,67.50
2023-05-23T19:11:10.811Z,67.70
2023-05-23T19:13:40.034Z,67.90
2023-05-23T19:16:09.108Z,68.00
2023-05-23T19:18:39.609Z,68.10
2023-05-23T19:21:08.661Z,68.20
2023-05-23T19:23:37.807Z,68.30
2023-05-23T19:26:06.931Z,68.60
2023-05-23T19:28:36.105Z,68.80
2023-05-23T19:31:05.230Z,69.00
2023-05-23T19:33:34.424Z,69.10
2023-05-23T19:36:05.503Z,69.20
2023-05-23T19:38:34.621Z,69.20
2023-05-23T19:41:06.133Z,69.30
2023-05-23T19:43:35.236Z,69.50
2023-05-23T19:46:04.535Z,69.60
2023-05-23T19:48:33.842Z,69.60
2023-05-23T19:51:04.413Z,69.70
2023-05-23T19:53:33.764Z,69.90
2023-05-23T19:56:03.701Z,69.90
2023-05-23T19:58:35.172Z,70.10
2023-05-23T20:01:04.915Z,70.30
2023-05-23T20:03:34.197Z,70.40
2023-05-23T20:06:05.366Z,70.60
2023-05-23T20:08:34.613Z,71.60
2023-05-23T20:11:03.766Z,70.80
2023-05-23T20:13:32.901Z,70.90
2023-05-23T20:16:02.162Z,71.00
2023-05-23T20:18:31.270Z,71.20
2023-05-23T20:21:01.450Z,71.40
2023-05-23T20:23:33.626Z,71.60
2023-05-23T20:26:02.753Z,72.00
2023-05-23T20:28:32.847Z,72.30
2023-05-23T20:31:02.197Z,72.40
2023-05-23T20:33:31.331Z,72.80
2023-05-23T20:36:01.590Z,73.10
2023-05-23T20:38:34.132Z,73.50
2023-05-23T20:41:06.559Z,73.80
2023-05-23T20:43:37.474Z,74.00
2023-05-23T20:46:07.471Z,74.20
2023-05-23T20:48:36.854Z,74.30
2023-05-23T20:51:07.481Z,74.40
2023-05-23T20:53:38.010Z,74.50
2023-05-23T20:56:10.249Z,74.60
2023-05-23T20:58:39.351Z,74.70
2023-05-23T21:01:08.465Z,74.90
2023-05-23T21:03:37.600Z,74.90
2023-05-23T21:06:07.361Z,75.00
2023-05-23T21:08:37.833Z,75.00
2023-05-23T21:11:06.999Z,75.10
2023-05-23T21:13:37.702Z,75.20
2023-05-23T21:16:12.598Z,75.20
2023-05-23T21:18:41.950Z,75.30
2023-05-23T21:21:11.002Z,75.50
2023-05-23T21:23:41.698Z,75.60
2023-05-23T21:26:10.744Z,75.80
2023-05-23T21:28:39.865Z,75.90
2023-05-23T21:31:09.421Z,76.00
2023-05-23T21:33:38.530Z,76.20
2023-05-23T21:36:07.914Z,76.20
2023-05-23T21:38:37.654Z,76.40
2023-05-23T21:41:08.366Z,76.50
2023-05-23T21:43:37.465Z,76.40
2023-05-23T21:46:06.608Z,76.40
2023-05-23T21:48:35.723Z,76.20
2023-05-23T21:51:04.852Z,76.20
2023-05-23T21:53:33.942Z,76.20
2023-05-23T21:56:03.028Z,76.20
2023-05-23T21:58:33.531Z,76.20
2023-05-23T22:01:02.648Z,76.30
2023-05-23T22:03:31.803Z,76.30
2023-05-23T22:06:00.914Z,76.30
2023-05-23T22:08:33.347Z,76.30
2023-05-23T22:11:02.533Z,76.30
2023-05-23T22:13:33.095Z,76.30
2023-05-23T22:16:02.435Z,76.30
2023-05-23T22:21:09.447Z,76.10
2023-05-23T22:23:39.203Z,76.10
2023-05-23T22:26:08.256Z,76.10
2023-05-23T22:28:38.696Z,76.10
2023-05-23T22:31:08.769Z,76.20
2023-05-23T22:33:38.931Z,76.30
2023-05-23T22:36:09.520Z,76.20
2023-05-23T22:38:38.961Z,76.20
2023-05-23T22:41:08.028Z,76.20
2023-05-23T22:43:38.578Z,76.30
2023-05-23T22:46:08.073Z,76.50
2023-05-23T22:48:38.047Z,76.50
2023-05-23T22:51:09.814Z,76.50
2023-05-23T22:53:39.087Z,76.60
2023-05-23T22:56:08.236Z,76.70
2023-05-23T22:58:38.737Z,76.70
2023-05-23T23:01:07.887Z,76.70
2023-05-23T23:03:37.118Z,76.80
2023-05-23T23:06:07.724Z,76.80
2023-05-23T23:08:37.826Z,76.90
2023-05-23T23:11:06.919Z,77.00
2023-05-23T23:13:36.036Z,77.00
2023-05-23T23:16:08.709Z,77.20
2023-05-23T23:18:37.848Z,77.20
2023-05-23T23:21:07.077Z,77.20
2023-05-23T23:23:36.701Z,77.20
2023-05-23T23:26:05.801Z,77.20
2023-05-23T23:28:34.889Z,77.20
2023-05-23T23:31:05.453Z,77.30
2023-05-23T23:33:34.563Z,77.30
2023-05-23T23:36:03.716Z,77.20
2023-05-23T23:38:32.764Z,77.20
2023-05-23T23:41:01.824Z,77.30
2023-05-23T23:43:31.462Z,77.30
2023-05-23T23:46:00.659Z,77.30
2023-05-23T23:48:31.174Z,77.30
2023-05-23T23:51:00.280Z,77.30
2023-05-23T23:53:30.209Z,77.30
2023-05-23T23:55:59.561Z,77.30
2023-05-23T23:58:28.571Z,77.60
